createdAt,value
2022-08-26T00:01:45.049Z,6.78
2022-08-26T00:04:12.755Z,6.60
2022-08-26T00:06:42.649Z,5.97
2022-08-26T00:09:15.928Z,6.50
2022-08-26T00:11:45.349Z,6.53
2022-08-26T00:14:13.680Z,6.88
2022-08-26T00:16:47.995Z,6.55
2022-08-26T00:19:18.368Z,6.38
2022-08-26T00:21:48.750Z,6.68
2022-08-26T00:24:19.367Z,7.15
2022-08-26T00:26:45.966Z,8.02
2022-08-26T00:29:13.120Z,7.75
2022-08-26T00:31:40.701Z,7.88
2022-08-26T00:34:09.433Z,6.68
2022-08-26T00:36:37.190Z,7.13
2022-08-26T00:39:04.714Z,6.90
2022-08-26T00:41:35.810Z,6.50
2022-08-26T00:44:02.629Z,6.88
2022-08-26T00:46:36.661Z,7.05
2022-08-26T00:49:17.915Z,6.15
2022-08-26T00:51:51.443Z,7.10
2022-08-26T00:54:22.834Z,6.18
2022-08-26T00:56:57.674Z,6.25
2022-08-26T00:59:28.812Z,6.32
2022-08-26T01:01:56.769Z,6.78
2022-08-26T01:04:24.694Z,6.13
2022-08-26T01:06:54.667Z,6.78
2022-08-26T01:09:23.063Z,6.68
2022-08-26T01:11:55.184Z,6.75
2022-08-26T01:14:24.286Z,6.45
2022-08-26T01:16:50.820Z,6.47
2022-08-26T01:19:40.330Z,6.80
2022-08-26T01:22:17.089Z,6.88
2022-08-26T01:24:43.719Z,6.70
2022-08-26T01:27:15.595Z,6.13
2022-08-26T01:29:46.295Z,6.45
2022-08-26T01:32:21.506Z,6.50
2022-08-26T01:34:50.107Z,6.55
2022-08-26T01:37:23.447Z,6.07
2022-08-26T01:39:54.416Z,6.15
2022-08-26T01:42:24.586Z,6.72
2022-08-26T01:45:03.575Z,6.65
2022-08-26T01:47:35.414Z,6.82
2022-08-26T01:50:09.159Z,6.60
2022-08-26T01:52:41.304Z,6.22
2022-08-26T01:55:11.508Z,6.65
2022-08-26T01:57:38.115Z,6.30
2022-08-26T02:00:13.155Z,6.60
2022-08-26T02:02:50.186Z,6.43
2022-08-26T02:05:22.024Z,6.68
2022-08-26T02:07:50.638Z,5.90
2022-08-26T02:10:17.176Z,6.30
2022-08-26T02:12:46.394Z,5.93
2022-08-26T02:15:13.199Z,6.18
2022-08-26T02:17:46.784Z,6.22
2022-08-26T02:20:20.610Z,6.13
2022-08-26T02:22:48.439Z,6.32
2022-08-26T02:25:50.213Z,6.75
2022-08-26T02:28:19.774Z,7.20
2022-08-26T02:30:47.655Z,6.90
2022-08-26T02:33:14.335Z,7.32
2022-08-26T02:35:41.277Z,6.90
2022-08-26T02:38:11.247Z,7.13
2022-08-26T02:40:42.099Z,6.97
2022-08-26T02:43:09.602Z,7.22
2022-08-26T02:45:36.967Z,7.32
2022-08-26T02:48:13.307Z,6.53
2022-08-26T02:50:40.982Z,7.68
2022-08-26T02:53:12.099Z,7.53
2022-08-26T02:55:40.835Z,8.07
2022-08-26T02:58:09.702Z,6.60
2022-08-26T03:00:38.409Z,7.78
2022-08-26T03:03:05.851Z,7.97
2022-08-26T03:05:33.070Z,7.30
2022-08-26T03:08:01.627Z,7.35
2022-08-26T03:10:29.283Z,7.35
2022-08-26T03:12:55.831Z,7.10
2022-08-26T03:15:22.815Z,7.57
2022-08-26T03:17:50.241Z,8.00
2022-08-26T03:20:18.098Z,7.50
2022-08-26T03:22:45.926Z,7.72
2022-08-26T03:25:16.550Z,7.25
2022-08-26T03:27:43.802Z,7.55
2022-08-26T03:30:31.261Z,8.63
2022-08-26T03:32:58.272Z,8.13
2022-08-26T03:35:26.191Z,8.40
2022-08-26T03:37:53.518Z,7.05
2022-08-26T03:40:21.462Z,7.82
2022-08-26T03:42:49.750Z,8.38
2022-08-26T03:45:19.319Z,8.32
2022-08-26T03:47:47.843Z,8.07
2022-08-26T03:50:22.647Z,8.70
2022-08-26T03:52:52.443Z,9.45
2022-08-26T03:55:23.765Z,10.18
2022-08-26T03:57:51.010Z,8.48
2022-08-26T04:00:19.347Z,9.07
2022-08-26T04:02:49.186Z,8.68
2022-08-26T04:05:19.606Z,12.40
2022-08-26T04:07:48.533Z,8.40
2022-08-26T04:10:20.268Z,8.93
2022-08-26T04:12:47.207Z,11.65
2022-08-26T04:15:16.601Z,8.80
2022-08-26T04:17:44.974Z,9.52
2022-08-26T04:20:17.991Z,8.73
2022-08-26T04:22:46.070Z,12.13
2022-08-26T04:25:13.630Z,9.45
2022-08-26T04:27:40.323Z,9.80
2022-08-26T04:30:08.975Z,8.52
2022-08-26T04:32:37.258Z,8.52
2022-08-26T04:35:05.397Z,8.93
2022-08-26T04:37:33.453Z,8.80
2022-08-26T04:40:00.140Z,9.25
2022-08-26T04:42:26.907Z,8.75
2022-08-26T04:44:53.409Z,10.10
2022-08-26T04:47:19.926Z,9.98
2022-08-26T04:49:46.488Z,11.05
2022-08-26T04:52:13.046Z,10.45
2022-08-26T04:54:39.589Z,9.93
2022-08-26T04:57:08.734Z,10.45
2022-08-26T04:59:39.192Z,10.00
2022-08-26T05:02:06.953Z,9.38
2022-08-26T05:04:33.936Z,10.60
2022-08-26T05:07:02.997Z,11.70
2022-08-26T05:09:29.638Z,11.25
2022-08-26T05:11:57.354Z,10.90
2022-08-26T05:14:23.943Z,11.88
2022-08-26T05:16:51.503Z,13.10
2022-08-26T05:19:19.518Z,11.55
2022-08-26T05:21:47.666Z,11.77
2022-08-26T05:24:14.647Z,12.98
2022-08-26T05:26:41.699Z,12.80
2022-08-26T05:29:11.563Z,12.73
2022-08-26T05:31:38.374Z,14.25
2022-08-26T05:34:05.800Z,12.75
2022-08-26T05:36:35.563Z,12.60
2022-08-26T05:39:05.359Z,11.75
2022-08-26T05:41:38.285Z,15.38
2022-08-26T05:44:10.675Z,13.52
2022-08-26T05:46:39.780Z,12.68
2022-08-26T05:49:12.223Z,13.32
2022-08-26T05:51:42.146Z,12.38
2022-08-26T05:54:10.204Z,14.48
2022-08-26T05:56:37.895Z,12.68
2022-08-26T05:59:05.824Z,13.40
2022-08-26T06:01:37.535Z,13.10
2022-08-26T06:04:04.162Z,12.52
2022-08-26T06:06:34.726Z,10.55
2022-08-26T06:09:05.485Z,10.80
2022-08-26T06:11:32.892Z,10.68
2022-08-26T06:14:04.350Z,11.38
2022-08-26T06:16:35.035Z,9.55
2022-08-26T06:19:10.487Z,11.90
2022-08-26T06:21:41.534Z,10.07
2022-08-26T06:24:32.369Z,10.25
2022-08-26T06:27:09.438Z,13.05
2022-08-26T06:29:37.589Z,12.27
2022-08-26T06:32:05.337Z,11.15
2022-08-26T06:34:32.616Z,11.60
2022-08-26T06:37:02.693Z,11.70
2022-08-26T06:39:31.389Z,15.07
2022-08-26T06:41:59.914Z,11.95
2022-08-26T06:44:27.577Z,11.40
2022-08-26T06:46:54.818Z,15.38
2022-08-26T06:49:27.362Z,15.27
2022-08-26T06:51:58.240Z,13.02
2022-08-26T06:54:25.883Z,17.08
2022-08-26T06:56:52.383Z,15.60
2022-08-26T06:59:18.892Z,33.40
2022-08-26T07:01:46.426Z,37.50
2022-08-26T07:04:20.192Z,35.78
2022-08-26T07:06:50.247Z,44.65
2022-08-26T07:09:24.389Z,44.65
2022-08-26T07:11:52.858Z,40.70
2022-08-26T07:14:21.556Z,52.53
2022-08-26T07:16:50.535Z,48.95
2022-08-26T07:19:30.087Z,50.83
2022-08-26T07:22:03.957Z,50.35
2022-08-26T07:24:38.314Z,54.75
2022-08-26T07:27:11.379Z,52.88
2022-08-26T07:29:40.259Z,55.70
2022-08-26T07:32:08.016Z,58.72
2022-08-26T07:34:34.717Z,53.35
2022-08-26T07:37:01.629Z,52.72
2022-08-26T07:39:31.617Z,52.15
2022-08-26T07:42:07.896Z,50.40
2022-08-26T07:44:37.247Z,54.22
2022-08-26T07:47:03.895Z,52.22
2022-08-26T07:49:37.952Z,56.65
2022-08-26T07:52:06.053Z,55.40
2022-08-26T07:54:32.914Z,50.72
2022-08-26T07:56:59.619Z,52.95
2022-08-26T07:59:26.130Z,49.85
2022-08-26T08:01:52.859Z,54.65
2022-08-26T08:04:26.034Z,50.08
2022-08-26T08:06:53.462Z,50.28
2022-08-26T08:09:19.982Z,47.97
2022-08-26T08:11:49.645Z,47.53
2022-08-26T08:14:18.199Z,49.67
2022-08-26T08:16:48.852Z,49.88
2022-08-26T08:19:20.130Z,49.35
2022-08-26T08:21:48.402Z,54.50
2022-08-26T08:24:15.680Z,49.33
2022-08-26T08:26:42.319Z,58.13
2022-08-26T08:29:08.960Z,51.95
2022-08-26T08:31:55.995Z,48.13
2022-08-26T08:34:28.876Z,47.95
2022-08-26T08:36:57.255Z,47.50
2022-08-26T08:39:25.393Z,50.17
2022-08-26T08:42:13.843Z,49.78
2022-08-26T08:44:52.537Z,50.78
2022-08-26T08:47:35.810Z,51.50
2022-08-26T08:50:24.552Z,52.78
2022-08-26T08:53:12.861Z,48.30
2022-08-26T08:56:20.520Z,46.90
2022-08-26T08:59:02.898Z,50.55
2022-08-26T09:01:54.231Z,50.60
2022-08-26T09:04:40.789Z,53.10
2022-08-26T09:07:18.381Z,50.13
2022-08-26T09:09:59.054Z,46.85
2022-08-26T09:12:33.443Z,47.92
2022-08-26T09:15:34.998Z,52.97
2022-08-26T09:18:41.375Z,49.28
2022-08-26T09:21:18.038Z,48.20
2022-08-26T09:23:49.260Z,47.38
2022-08-26T09:26:23.511Z,49.20
2022-08-26T09:29:01.286Z,44.75
2022-08-26T09:31:37.687Z,49.22
2022-08-26T09:34:19.616Z,47.60
2022-08-26T09:36:56.234Z,46.95
2022-08-26T09:39:37.650Z,46.63
2022-08-26T09:42:27.534Z,50.20
2022-08-26T09:45:04.377Z,46.88
2022-08-26T09:47:51.892Z,46.13
2022-08-26T09:50:50.538Z,45.13
2022-08-26T09:53:28.561Z,48.60
2022-08-26T09:56:29.416Z,46.30
2022-08-26T09:58:57.253Z,48.85
2022-08-26T10:01:23.753Z,49.10
2022-08-26T10:03:51.370Z,47.88
2022-08-26T10:06:17.883Z,46.30
2022-08-26T10:08:54.281Z,45.80
2022-08-26T10:11:47.206Z,44.42
2022-08-26T10:17:36.942Z,40.33
2022-08-26T10:20:23.133Z,43.17
2022-08-26T10:23:32.282Z,41.30
2022-08-26T10:26:30.596Z,42.47
2022-08-26T10:29:08.881Z,41.92
2022-08-26T10:31:41.031Z,39.75
2022-08-26T10:34:09.742Z,42.50
2022-08-26T10:37:14.355Z,44.25
2022-08-26T10:40:01.514Z,40.45
2022-08-26T10:42:38.655Z,39.78
2022-08-26T10:45:19.682Z,38.88
2022-08-26T10:47:59.969Z,40.20
2022-08-26T10:50:36.028Z,39.40
2022-08-26T10:53:40.004Z,38.70
2022-08-26T10:56:43.342Z,38.88
2022-08-26T10:59:29.440Z,37.83
2022-08-26T11:02:15.849Z,37.30
2022-08-26T11:04:58.730Z,35.60
2022-08-26T11:07:52.553Z,38.03
2022-08-26T11:10:21.321Z,38.77
2022-08-26T11:13:00.371Z,37.42
2022-08-26T11:15:28.050Z,34.20
2022-08-26T11:18:40.935Z,29.90
2022-08-26T11:22:02.390Z,41.53
2022-08-26T11:24:57.345Z,39.13
2022-08-26T11:27:26.653Z,38.88
2022-08-26T11:30:27.908Z,38.72
2022-08-26T11:32:59.346Z,34.17
2022-08-26T11:35:26.148Z,39.15
2022-08-26T11:38:20.078Z,33.05
2022-08-26T11:41:03.288Z,36.95
2022-08-26T11:43:32.522Z,37.45
2022-08-26T11:46:06.207Z,37.90
2022-08-26T11:48:40.110Z,36.58
2022-08-26T11:51:23.353Z,33.80
2022-08-26T11:53:51.032Z,38.72
2022-08-26T11:56:33.904Z,35.72
2022-08-26T11:59:10.456Z,36.00
2022-08-26T12:01:43.797Z,35.97
2022-08-26T12:04:24.953Z,37.17
2022-08-26T12:06:53.401Z,36.53
2022-08-26T12:09:32.822Z,37.88
2022-08-26T12:12:17.389Z,33.78
2022-08-26T12:14:45.060Z,38.70
2022-08-26T12:17:25.683Z,37.08
2022-08-26T12:19:52.248Z,36.35
2022-08-26T12:22:34.523Z,38.03
2022-08-26T12:25:11.651Z,35.28
2022-08-26T12:27:44.185Z,38.15
2022-08-26T12:30:12.445Z,37.45
2022-08-26T12:32:57.231Z,33.53
2022-08-26T12:35:26.706Z,36.53
2022-08-26T12:37:55.129Z,35.38
2022-08-26T12:40:31.003Z,36.03
2022-08-26T12:43:01.758Z,32.88
2022-08-26T12:45:59.731Z,33.67
2022-08-26T12:48:32.708Z,32.80
2022-08-26T12:51:01.041Z,34.35
2022-08-26T12:53:34.795Z,31.73
2022-08-26T12:56:19.446Z,38.08
2022-08-26T12:59:03.689Z,31.65
2022-08-26T13:01:44.341Z,29.23
2022-08-26T13:04:35.804Z,31.17
2022-08-26T13:07:18.427Z,31.50
2022-08-26T13:09:44.948Z,28.08
2022-08-26T13:12:11.556Z,37.10
2022-08-26T13:14:38.366Z,37.72
2022-08-26T13:17:05.035Z,35.33
2022-08-26T13:19:31.563Z,51.22
2022-08-26T13:22:00.596Z,36.35
2022-08-26T13:24:39.683Z,38.75
2022-08-26T13:27:09.154Z,46.00
2022-08-26T13:29:36.264Z,38.25
2022-08-26T13:32:05.290Z,36.47
2022-08-26T13:34:32.463Z,35.60
2022-08-26T13:36:59.602Z,36.03
2022-08-26T13:39:26.838Z,39.40
2022-08-26T13:41:54.299Z,33.33
2022-08-26T13:44:21.648Z,32.42
2022-08-26T13:46:48.449Z,29.45
2022-08-26T13:49:15.174Z,28.90
2022-08-26T13:51:41.929Z,26.33
2022-08-26T13:54:08.981Z,26.20
2022-08-26T13:56:37.325Z,28.67
2022-08-26T13:59:05.655Z,29.02
2022-08-26T14:01:34.146Z,29.10
2022-08-26T14:04:01.053Z,30.45
2022-08-26T14:06:27.575Z,29.08
2022-08-26T14:08:54.552Z,30.90
2022-08-26T14:11:21.385Z,29.27
2022-08-26T14:13:48.009Z,28.63
2022-08-26T14:16:28.884Z,25.60
2022-08-26T14:18:55.427Z,23.60
2022-08-26T14:21:22.174Z,22.38
2022-08-26T14:23:48.759Z,23.00
2022-08-26T14:26:28.890Z,20.27
2022-08-26T14:29:03.710Z,17.02
2022-08-26T14:31:32.884Z,21.08
2022-08-26T14:34:04.804Z,15.88
2022-08-26T14:36:32.938Z,14.60
2022-08-26T14:39:06.067Z,15.30
2022-08-26T14:41:37.034Z,15.82
2022-08-26T14:44:10.493Z,13.63
2022-08-26T14:46:44.806Z,15.00
2022-08-26T14:49:12.002Z,15.52
2022-08-26T14:51:40.739Z,14.90
2022-08-26T14:54:12.514Z,12.93
2022-08-26T14:57:03.711Z,14.50
2022-08-26T14:59:43.327Z,13.82
2022-08-26T15:02:22.270Z,15.52
2022-08-26T15:04:59.731Z,14.57
2022-08-26T15:07:26.245Z,16.35
2022-08-26T15:09:53.013Z,17.52
2022-08-26T15:12:19.523Z,15.05
2022-08-26T15:14:46.049Z,15.63
2022-08-26T15:17:12.918Z,13.98
2022-08-26T15:19:39.511Z,14.95
2022-08-26T15:22:06.015Z,15.10
2022-08-26T15:24:32.541Z,16.38
2022-08-26T15:26:59.081Z,17.02
2022-08-26T15:29:25.713Z,15.93
2022-08-26T15:31:52.568Z,18.00
2022-08-26T15:34:23.734Z,18.48
2022-08-26T15:36:50.291Z,16.67
2022-08-26T15:39:17.804Z,14.95
2022-08-26T15:41:45.285Z,15.85
2022-08-26T15:44:14.163Z,14.85
2022-08-26T15:46:41.912Z,14.57
2022-08-26T15:49:09.455Z,13.27
2022-08-26T15:51:45.309Z,13.68
2022-08-26T15:54:16.472Z,13.18
2022-08-26T15:56:43.633Z,12.23
2022-08-26T15:59:11.422Z,12.32
2022-08-26T16:01:39.293Z,11.50
2022-08-26T16:04:06.372Z,11.93
2022-08-26T16:06:37.354Z,11.27
2022-08-26T16:09:06.083Z,9.48
2022-08-26T16:11:35.819Z,12.10
2022-08-26T16:14:04.849Z,11.32
2022-08-26T16:16:32.154Z,11.07
2022-08-26T16:18:58.849Z,12.48
2022-08-26T16:21:28.523Z,11.18
2022-08-26T16:23:57.508Z,10.98
2022-08-26T16:26:32.796Z,9.60
2022-08-26T16:29:02.466Z,11.87
2022-08-26T16:31:29.318Z,11.43
2022-08-26T16:33:56.382Z,10.27
2022-08-26T16:36:22.958Z,13.15
2022-08-26T16:38:55.164Z,11.93
2022-08-26T16:41:28.471Z,10.02
2022-08-26T16:43:57.094Z,10.73
2022-08-26T16:46:26.158Z,11.15
2022-08-26T16:48:58.122Z,12.27
2022-08-26T16:51:27.794Z,10.43
2022-08-26T16:53:58.588Z,11.50
2022-08-26T16:56:34.077Z,9.85
2022-08-26T16:59:04.012Z,11.95
2022-08-26T17:01:30.656Z,11.00
2022-08-26T17:03:57.237Z,11.60
2022-08-26T17:06:23.855Z,10.77
2022-08-26T17:08:50.400Z,11.02
2022-08-26T17:11:17.112Z,10.25
2022-08-26T17:13:43.685Z,11.95
2022-08-26T17:16:13.117Z,9.52
2022-08-26T17:18:39.752Z,10.48
2022-08-26T17:21:10.950Z,10.00
2022-08-26T17:23:40.895Z,9.85
2022-08-26T17:26:07.994Z,9.07
2022-08-26T17:28:34.950Z,10.30
2022-08-26T17:31:02.566Z,10.88
2022-08-26T17:33:29.547Z,10.40
2022-08-26T17:35:56.844Z,9.20
2022-08-26T17:38:24.007Z,10.18
2022-08-26T17:40:50.874Z,10.27
2022-08-26T17:43:18.495Z,8.93
2022-08-26T17:45:45.524Z,9.25
2022-08-26T17:48:12.567Z,9.77
2022-08-26T17:50:42.678Z,8.50
2022-08-26T17:53:18.486Z,9.13
2022-08-26T17:55:46.527Z,8.88
2022-08-26T17:58:14.806Z,8.82
2022-08-26T18:00:48.811Z,8.80
2022-08-26T18:03:16.300Z,7.50
2022-08-26T18:05:48.744Z,9.40
2022-08-26T18:08:15.287Z,9.48
2022-08-26T18:10:43.716Z,9.68
2022-08-26T18:13:11.237Z,9.20
2022-08-26T18:15:43.411Z,8.85
2022-08-26T18:18:10.155Z,9.35
2022-08-26T18:20:40.175Z,8.48
2022-08-26T18:23:06.956Z,8.02
2022-08-26T18:25:33.845Z,9.05
2022-08-26T18:28:00.573Z,9.13
2022-08-26T18:30:27.105Z,8.48
2022-08-26T18:32:53.642Z,9.38
2022-08-26T18:35:21.406Z,8.55
2022-08-26T18:37:47.943Z,8.30
2022-08-26T18:40:16.059Z,7.88
2022-08-26T18:42:42.700Z,7.20
2022-08-26T18:45:10.317Z,8.20
2022-08-26T18:47:42.968Z,7.47
2022-08-26T18:50:10.999Z,7.00
2022-08-26T18:52:37.902Z,6.72
2022-08-26T18:55:05.039Z,7.30
2022-08-26T18:57:31.612Z,7.10
2022-08-26T18:59:58.156Z,7.18
2022-08-26T19:02:24.768Z,6.18
2022-08-26T19:04:52.180Z,6.80
2022-08-26T19:07:20.408Z,6.78
2022-08-26T19:09:46.924Z,6.60
2022-08-26T19:12:20.367Z,7.20
2022-08-26T19:14:47.152Z,6.28
2022-08-26T19:17:13.979Z,6.65
2022-08-26T19:19:40.609Z,6.45
2022-08-26T19:22:07.623Z,6.72
2022-08-26T19:24:34.599Z,6.38
2022-08-26T19:27:03.482Z,6.47
2022-08-26T19:29:34.584Z,5.95
2022-08-26T19:32:02.860Z,5.75
2022-08-26T19:34:30.155Z,5.60
2022-08-26T19:36:58.276Z,5.07
2022-08-26T19:39:26.477Z,5.57
2022-08-26T19:41:53.349Z,5.88
2022-08-26T19:44:41.178Z,5.88
2022-08-26T19:47:10.941Z,5.40
2022-08-26T19:49:38.418Z,5.95
2022-08-26T19:52:05.970Z,6.38
2022-08-26T19:54:33.575Z,5.90
2022-08-26T19:57:00.371Z,5.68
2022-08-26T19:59:27.011Z,6.05
2022-08-26T20:02:01.063Z,5.25
2022-08-26T20:04:28.936Z,6.00
2022-08-26T20:06:58.722Z,6.13
2022-08-26T20:09:32.525Z,6.57
2022-08-26T20:11:59.554Z,6.88
2022-08-26T20:14:28.270Z,6.40
2022-08-26T20:16:54.877Z,6.45
2022-08-26T20:19:40.147Z,6.05
2022-08-26T20:22:07.615Z,5.65
2022-08-26T20:24:35.010Z,6.00
2022-08-26T20:27:07.318Z,5.22
2022-08-26T20:29:36.859Z,5.85
2022-08-26T20:32:05.992Z,6.80
2022-08-26T20:34:33.518Z,4.97
2022-08-26T20:37:00.287Z,5.30
2022-08-26T20:39:29.755Z,6.43
2022-08-26T20:41:58.292Z,6.75
2022-08-26T20:44:25.407Z,6.22
2022-08-26T20:46:52.072Z,6.80
2022-08-26T20:49:18.885Z,7.05
2022-08-26T20:51:51.323Z,8.10
2022-08-26T20:54:22.173Z,8.15
2022-08-26T20:56:53.613Z,8.15
2022-08-26T20:59:21.107Z,7.63
2022-08-26T21:01:49.124Z,7.57
2022-08-26T21:04:22.353Z,8.18
2022-08-26T21:06:52.911Z,8.45
2022-08-26T21:09:22.182Z,8.95
2022-08-26T21:11:50.379Z,7.00
2022-08-26T21:14:17.762Z,7.45
2022-08-26T21:16:45.978Z,7.47
2022-08-26T21:19:17.454Z,6.85
2022-08-26T21:21:44.465Z,6.93
2022-08-26T21:24:12.103Z,6.78
2022-08-26T21:26:39.200Z,6.65
2022-08-26T21:29:09.467Z,9.90
2022-08-26T21:31:41.001Z,8.30
2022-08-26T21:34:11.586Z,8.88
2022-08-26T21:36:38.167Z,9.50
2022-08-26T21:39:09.297Z,9.13
2022-08-26T21:41:38.047Z,10.15
2022-08-26T21:44:04.570Z,9.40
2022-08-26T21:46:31.685Z,9.20
2022-08-26T21:49:02.296Z,10.50
2022-08-26T21:51:33.238Z,9.80
2022-08-26T21:54:02.045Z,10.50
2022-08-26T21:56:54.264Z,10.30
2022-08-26T21:59:20.843Z,8.98
2022-08-26T22:01:47.846Z,9.93
2022-08-26T22:04:15.949Z,9.18
2022-08-26T22:06:46.429Z,8.63
2022-08-26T22:09:16.916Z,10.35
2022-08-26T22:11:43.899Z,10.93
2022-08-26T22:14:11.994Z,10.40
2022-08-26T22:16:38.691Z,9.50
2022-08-26T22:19:05.643Z,8.25
2022-08-26T22:21:33.911Z,8.80
2022-08-26T22:24:00.547Z,9.65
2022-08-26T22:26:31.954Z,9.95
2022-08-26T22:29:01.287Z,8.68
2022-08-26T22:31:37.259Z,8.27
2022-08-26T22:34:15.044Z,11.15
2022-08-26T22:36:45.460Z,9.52
2022-08-26T22:39:20.039Z,10.23
2022-08-26T22:41:48.760Z,9.93
2022-08-26T22:44:17.365Z,10.93
2022-08-26T22:46:45.089Z,10.55
2022-08-26T22:49:16.913Z,10.30
2022-08-26T22:51:45.151Z,10.65
2022-08-26T22:54:13.201Z,9.77
2022-08-26T22:56:40.147Z,10.45
2022-08-26T22:59:08.633Z,10.27
2022-08-26T23:01:38.933Z,11.35
2022-08-26T23:04:07.801Z,10.10
2022-08-26T23:06:37.733Z,11.18
2022-08-26T23:09:07.057Z,9.02
2022-08-26T23:11:35.333Z,10.05
2022-08-26T23:14:05.068Z,9.07
2022-08-26T23:16:40.682Z,8.52
2022-08-26T23:19:10.190Z,9.20
2022-08-26T23:21:36.841Z,9.07
2022-08-26T23:24:05.677Z,9.80
2022-08-26T23:26:34.151Z,8.77
2022-08-26T23:29:01.598Z,7.63
2022-08-26T23:31:28.346Z,8.68
2022-08-26T23:34:13.269Z,7.95
2022-08-26T23:36:42.117Z,8.20
2022-08-26T23:39:11.007Z,8.15
2022-08-26T23:41:38.279Z,8.07
2022-08-26T23:44:05.848Z,7.65
2022-08-26T23:46:35.215Z,7.75
2022-08-26T23:49:01.957Z,7.40
2022-08-26T23:51:46.950Z,6.65
2022-08-26T23:54:15.546Z,7.43
2022-08-26T23:56:42.186Z,6.45
2022-08-26T23:59:08.910Z,7.10
